Dickinson's Hourly Summary for Tuesday, March 7, 2017
Hour Temp
(f)
RH
(%)
Solar Rad.
(MJ/m2)
Rainfall
(in)
Wind
(mph)
3/7/2017 12:00 AM 70 99 0 0 6.29
3/7/2017 1:00 AM 70 99 0 0 5.85
3/7/2017 2:00 AM 71 99 0 0 5.3
3/7/2017 3:00 AM 71 99 0 0 4.67
3/7/2017 4:00 AM 71 99 0 0 3.48
3/7/2017 5:00 AM 71 99 0 0 2.11
3/7/2017 6:00 AM 71 99 0 0 0.73
3/7/2017 7:00 AM 70 99 0 0.02 0.81
3/7/2017 8:00 AM 70 99 0.02 0 0.89
3/7/2017 9:00 AM 70 99 0.24 0 2.4
3/7/2017 10:00 AM 73 87 0.8 0 2.11
3/7/2017 11:00 AM 75 82 0.77 0 4.61
3/7/2017 12:00 PM 77 71 1.63 0.01 5.13
3/7/2017 1:00 PM 76 72 1.23 0.07 5.19
3/7/2017 2:00 PM 77 73 1.41 0 4
3/7/2017 3:00 PM 75 74 0.73 0.19 4.7
3/7/2017 4:00 PM 76 73 2.14 0 2.92
3/7/2017 5:00 PM 78 71 0.72 0.07 3.5
3/7/2017 6:00 PM 71 91 0.04 0.16 3
3/7/2017 7:00 PM 70 90 0.01 0 3.11
3/7/2017 8:00 PM 67 79 0.01 0 7.91
3/7/2017 9:00 PM 64 67 0 0 7.16
3/7/2017 10:00 PM 63 58 0 0 8.57
3/7/2017 11:00 PM 63 54 0 0 7.25
Data Summary 71 84 9.75 0.52 4.24